createdAt,value
2023-01-25T00:02:06.520Z,32.00
2023-01-25T00:04:34.453Z,32.50
2023-01-25T00:07:03.542Z,32.00
2023-01-25T00:09:32.864Z,30.00
2023-01-25T00:12:00.761Z,31.50
2023-01-25T00:14:28.690Z,32.25
2023-01-25T00:16:56.928Z,31.25
2023-01-25T00:19:25.074Z,31.25
2023-01-25T00:21:53.062Z,31.50
2023-01-25T00:24:23.046Z,29.00
2023-01-25T00:26:52.741Z,30.00
2023-01-25T00:29:20.873Z,28.00
2023-01-25T00:31:55.509Z,26.00
2023-01-25T00:34:46.145Z,29.50
2023-01-25T00:37:16.025Z,27.75
2023-01-25T00:39:43.951Z,25.50
2023-01-25T00:42:13.434Z,26.50
2023-01-25T00:44:41.407Z,26.75
2023-01-25T00:47:10.533Z,28.00
2023-01-25T00:49:39.205Z,26.75
2023-01-25T00:52:07.178Z,27.00
2023-01-25T00:54:35.437Z,24.25
2023-01-25T00:57:03.402Z,25.25
2023-01-25T00:59:32.741Z,25.50
2023-01-25T01:02:01.320Z,23.50
2023-01-25T01:04:29.273Z,24.25
2023-01-25T01:06:57.646Z,24.75
2023-01-25T01:09:25.556Z,20.25
2023-01-25T01:11:53.471Z,23.75
2023-01-25T01:14:21.705Z,23.75
2023-01-25T01:16:51.352Z,23.00
2023-01-25T01:19:19.329Z,21.00
2023-01-25T01:21:47.278Z,24.50
2023-01-25T01:24:15.246Z,22.75
2023-01-25T01:26:43.458Z,22.50
2023-01-25T01:29:11.407Z,23.75
2023-01-25T01:31:39.442Z,21.25
2023-01-25T01:34:08.748Z,21.75
2023-01-25T01:36:36.944Z,18.25
2023-01-25T01:39:04.904Z,22.50
2023-01-25T01:41:32.801Z,19.50
2023-01-25T01:44:00.739Z,21.50
2023-01-25T01:46:30.009Z,19.00
2023-01-25T01:48:59.499Z,20.25
2023-01-25T01:51:43.445Z,19.50
2023-01-25T01:54:14.162Z,20.00
2023-01-25T01:56:44.977Z,20.50
2023-01-25T01:59:13.065Z,17.25
2023-01-25T02:01:41.133Z,19.75
2023-01-25T02:04:09.082Z,19.25
2023-01-25T02:06:42.790Z,18.00
2023-01-25T02:09:10.759Z,20.00
2023-01-25T02:11:38.704Z,18.00
2023-01-25T02:14:06.583Z,17.75
2023-01-25T02:16:34.789Z,18.50
2023-01-25T02:19:03.766Z,19.25
2023-01-25T02:21:34.913Z,17.75
2023-01-25T02:24:06.925Z,17.50
2023-01-25T02:26:36.549Z,18.00
2023-01-25T02:29:05.404Z,17.25
2023-01-25T02:31:33.331Z,17.25
2023-01-25T02:34:01.277Z,18.50
2023-01-25T02:36:30.173Z,15.75
2023-01-25T02:39:00.532Z,17.75
2023-01-25T02:41:33.759Z,17.00
2023-01-25T02:44:04.213Z,17.75
2023-01-25T02:46:33.368Z,18.00
2023-01-25T02:49:01.661Z,16.25
2023-01-25T02:51:30.432Z,17.25
2023-01-25T02:53:58.374Z,17.00
2023-01-25T02:56:26.284Z,16.25
2023-01-25T02:58:54.235Z,17.75
2023-01-25T03:01:23.514Z,16.50
2023-01-25T03:03:51.454Z,17.25
2023-01-25T03:06:19.612Z,17.00
2023-01-25T03:08:47.885Z,16.00
2023-01-25T03:11:15.813Z,15.75
2023-01-25T03:13:43.695Z,15.25
2023-01-25T03:16:12.726Z,15.00
2023-01-25T03:18:42.110Z,15.00
2023-01-25T03:21:11.193Z,14.25
2023-01-25T03:23:39.179Z,16.25
2023-01-25T03:26:11.246Z,16.75
2023-01-25T03:28:39.331Z,15.50
2023-01-25T03:31:07.587Z,16.25
2023-01-25T03:33:35.480Z,15.75
2023-01-25T03:36:05.736Z,16.00
2023-01-25T03:38:33.815Z,17.00
2023-01-25T03:41:01.782Z,16.00
2023-01-25T03:43:29.700Z,17.00
2023-01-25T03:45:58.937Z,12.50
2023-01-25T03:48:27.060Z,16.50
2023-01-25T03:50:55.735Z,15.50
2023-01-25T03:53:30.854Z,15.50
2023-01-25T03:55:59.618Z,14.25
2023-01-25T03:58:27.641Z,15.00
2023-01-25T04:00:56.178Z,15.00
2023-01-25T04:03:25.119Z,16.25
2023-01-25T04:05:53.288Z,14.25
2023-01-25T04:08:21.248Z,16.75
2023-01-25T04:10:53.646Z,16.00
2023-01-25T04:13:21.737Z,17.25
2023-01-25T04:15:49.642Z,14.50
2023-01-25T04:18:17.724Z,13.75
2023-01-25T04:20:45.674Z,17.00
2023-01-25T04:23:13.585Z,15.00
2023-01-25T04:25:42.026Z,15.00
2023-01-25T04:28:11.295Z,14.00
2023-01-25T04:30:39.168Z,15.00
2023-01-25T04:33:08.044Z,17.75
2023-01-25T04:35:36.285Z,14.75
2023-01-25T04:38:04.311Z,16.50
2023-01-25T04:40:32.279Z,15.00
2023-01-25T04:43:00.212Z,16.00
2023-01-25T04:45:29.778Z,14.75
2023-01-25T04:47:57.765Z,15.00
2023-01-25T04:50:25.721Z,15.00
2023-01-25T04:52:53.619Z,16.50
2023-01-25T04:55:21.509Z,15.50
2023-01-25T04:57:50.496Z,15.00
2023-01-25T05:00:19.189Z,15.00
2023-01-25T05:02:48.478Z,15.25
2023-01-25T05:05:16.919Z,14.50
2023-01-25T05:07:44.801Z,14.75
2023-01-25T05:10:12.797Z,15.75
2023-01-25T05:12:40.702Z,15.25
2023-01-25T05:15:12.706Z,17.00
2023-01-25T05:17:40.705Z,17.50
2023-01-25T05:20:11.848Z,20.00
2023-01-25T05:22:39.761Z,21.00
2023-01-25T05:25:28.759Z,20.00
2023-01-25T05:27:55.631Z,19.75
2023-01-25T05:30:23.526Z,22.25
2023-01-25T05:32:51.421Z,24.50
2023-01-25T05:35:20.963Z,23.25
2023-01-25T05:37:48.867Z,26.50
2023-01-25T05:40:16.942Z,26.50
2023-01-25T05:42:44.887Z,27.50
2023-01-25T05:45:13.122Z,25.50
2023-01-25T05:47:41.159Z,28.00
2023-01-25T05:50:10.023Z,27.25
2023-01-25T05:52:39.292Z,26.00
2023-01-25T05:55:08.170Z,29.00
2023-01-25T05:57:36.309Z,27.75
2023-01-25T06:00:04.915Z,28.00
2023-01-25T06:02:33.289Z,28.75
2023-01-25T06:05:01.572Z,28.50
2023-01-25T06:07:29.473Z,30.00
2023-01-25T06:09:58.843Z,26.25
2023-01-25T06:12:28.276Z,28.00
2023-01-25T06:14:57.516Z,28.25
2023-01-25T06:17:25.478Z,30.00
2023-01-25T06:19:53.384Z,27.75
2023-01-25T06:22:21.820Z,26.50
2023-01-25T06:24:50.196Z,29.75
2023-01-25T06:27:19.507Z,27.00
2023-01-25T06:29:47.740Z,28.00
2023-01-25T06:32:15.692Z,27.75
2023-01-25T06:34:43.837Z,30.00
2023-01-25T06:37:12.498Z,26.25
2023-01-25T06:39:40.390Z,26.00
2023-01-25T06:42:10.348Z,25.75
2023-01-25T06:44:39.613Z,28.00
2023-01-25T06:47:09.544Z,27.00
2023-01-25T06:49:37.406Z,26.25
2023-01-25T06:52:05.323Z,25.50
2023-01-25T06:54:34.460Z,22.75
2023-01-25T06:57:02.537Z,25.25
2023-01-25T06:59:30.412Z,24.25
2023-01-25T07:01:59.796Z,24.00
2023-01-25T07:04:27.752Z,23.50
2023-01-25T07:06:55.934Z,24.25
2023-01-25T07:09:24.269Z,25.75
2023-01-25T07:11:52.201Z,23.00
2023-01-25T07:14:20.287Z,22.25
2023-01-25T07:16:48.470Z,26.00
2023-01-25T07:19:18.040Z,23.75
2023-01-25T07:21:47.096Z,22.50
2023-01-25T07:24:16.034Z,22.25
2023-01-25T07:26:44.014Z,22.00
2023-01-25T07:29:13.809Z,24.50
2023-01-25T07:31:42.270Z,22.50
2023-01-25T07:34:10.523Z,23.50
2023-01-25T07:36:40.140Z,25.00
2023-01-25T07:39:09.320Z,21.00
2023-01-25T07:41:37.193Z,21.25
2023-01-25T07:44:05.220Z,19.00
2023-01-25T07:46:33.464Z,21.00
2023-01-25T07:49:01.402Z,21.25
2023-01-25T07:51:31.047Z,20.75
2023-01-25T07:54:01.687Z,20.00
2023-01-25T07:56:31.906Z,21.00
2023-01-25T07:59:00.171Z,20.50
2023-01-25T08:01:28.755Z,20.25
2023-01-25T08:03:57.340Z,18.75
2023-01-25T08:06:27.606Z,19.00
2023-01-25T08:08:56.060Z,19.25
2023-01-25T08:11:26.574Z,18.00
2023-01-25T08:13:54.535Z,21.50
2023-01-25T08:16:24.144Z,20.00
2023-01-25T08:18:52.647Z,23.00
2023-01-25T08:21:20.537Z,18.50
2023-01-25T08:23:48.538Z,19.25
2023-01-25T08:26:18.125Z,20.50
2023-01-25T08:28:47.428Z,19.00
2023-01-25T08:31:16.205Z,20.00
2023-01-25T08:33:46.109Z,20.00
2023-01-25T08:36:14.551Z,18.25
2023-01-25T08:38:42.552Z,19.00
2023-01-25T08:41:11.348Z,20.75
2023-01-25T08:43:39.371Z,21.00
2023-01-25T08:46:09.028Z,19.75
2023-01-25T08:48:36.960Z,18.75
2023-01-25T08:51:05.143Z,18.00
2023-01-25T08:53:33.877Z,20.25
2023-01-25T08:56:05.996Z,18.50
2023-01-25T08:58:34.212Z,17.75
2023-01-25T09:01:03.402Z,19.00
2023-01-25T09:03:32.770Z,18.25
2023-01-25T09:06:01.048Z,20.50
2023-01-25T09:08:28.919Z,17.50
2023-01-25T09:10:56.814Z,17.00
2023-01-25T09:13:24.711Z,17.00
2023-01-25T09:15:52.872Z,19.00
2023-01-25T09:18:20.796Z,18.75
2023-01-25T09:20:50.150Z,17.25
2023-01-25T09:23:19.651Z,18.75
2023-01-25T09:25:47.843Z,19.00
2023-01-25T09:28:15.827Z,19.25
2023-01-25T09:30:47.612Z,17.50
2023-01-25T09:33:19.535Z,18.50
2023-01-25T09:35:51.982Z,18.50
2023-01-25T09:38:19.909Z,17.50
2023-01-25T09:40:52.929Z,17.00
2023-01-25T09:43:23.097Z,16.25
2023-01-25T09:45:51.299Z,16.00
2023-01-25T09:48:22.331Z,17.50
2023-01-25T09:51:09.869Z,19.75
2023-01-25T09:53:38.188Z,19.00
2023-01-25T09:56:10.453Z,18.75
2023-01-25T09:58:39.379Z,18.50
2023-01-25T10:01:36.697Z,16.00
2023-01-25T10:04:08.649Z,19.25
2023-01-25T10:06:46.129Z,18.00
2023-01-25T10:09:24.713Z,19.00
2023-01-25T10:11:52.614Z,18.75
2023-01-25T10:14:21.545Z,17.25
2023-01-25T10:16:56.639Z,18.00
2023-01-25T10:19:26.581Z,21.00
2023-01-25T10:21:57.123Z,18.00
2023-01-25T10:24:46.278Z,18.00
2023-01-25T10:27:20.165Z,18.75
2023-01-25T10:29:50.436Z,21.25
2023-01-25T10:32:20.422Z,20.00
2023-01-25T10:34:56.339Z,19.25
2023-01-25T10:37:28.753Z,20.25
2023-01-25T10:40:00.269Z,19.75
2023-01-25T10:42:28.553Z,18.75
2023-01-25T10:44:56.714Z,20.50
2023-01-25T10:47:25.537Z,19.00
2023-01-25T10:49:53.992Z,21.50
2023-01-25T10:52:23.223Z,20.00
2023-01-25T10:55:15.136Z,20.25
2023-01-25T10:57:46.673Z,19.75
2023-01-25T11:00:24.714Z,20.25
2023-01-25T11:02:53.931Z,18.00
2023-01-25T11:05:30.580Z,20.25
2023-01-25T11:07:58.587Z,20.25
2023-01-25T11:10:32.582Z,19.00
2023-01-25T11:13:21.868Z,20.50
2023-01-25T11:15:50.829Z,20.00
2023-01-25T11:18:20.495Z,23.50
2023-01-25T11:20:48.439Z,20.25
2023-01-25T11:23:23.190Z,20.25
2023-01-25T11:25:53.006Z,18.75
2023-01-25T11:28:22.979Z,21.25
2023-01-25T11:30:51.155Z,20.25
2023-01-25T11:33:21.077Z,20.00
2023-01-25T11:36:16.586Z,20.25
2023-01-25T11:38:47.514Z,20.50
2023-01-25T11:41:19.416Z,20.25
2023-01-25T11:44:04.072Z,22.50
2023-01-25T11:46:40.449Z,19.00
2023-01-25T11:49:29.146Z,18.75
2023-01-25T11:51:59.925Z,19.50
2023-01-25T11:54:39.303Z,20.00
2023-01-25T11:57:14.889Z,22.50
2023-01-25T11:59:54.886Z,20.00
2023-01-25T12:02:48.515Z,20.00
2023-01-25T12:05:22.775Z,20.50
2023-01-25T12:07:52.701Z,20.75
2023-01-25T12:10:26.810Z,19.50
2023-01-25T12:12:59.194Z,20.50
2023-01-25T12:15:49.202Z,23.00
2023-01-25T12:19:04.909Z,21.00
2023-01-25T12:21:41.387Z,19.50
2023-01-25T12:24:24.361Z,21.00
2023-01-25T12:26:55.709Z,20.00
2023-01-25T12:29:28.425Z,21.00
2023-01-25T12:31:58.314Z,19.25
2023-01-25T12:34:28.654Z,20.75
2023-01-25T12:36:57.065Z,22.50
2023-01-25T12:39:26.195Z,20.75
2023-01-25T12:41:57.426Z,21.25
2023-01-25T12:44:28.288Z,19.75
2023-01-25T12:46:58.920Z,18.25
2023-01-25T12:49:30.608Z,21.50
2023-01-25T12:52:00.283Z,22.25
2023-01-25T12:54:31.412Z,21.75
2023-01-25T12:57:05.339Z,21.50
2023-01-25T12:59:39.302Z,19.25
2023-01-25T13:02:16.331Z,21.00
2023-01-25T13:04:52.122Z,22.25
2023-01-25T13:07:22.095Z,20.00
2023-01-25T13:09:54.610Z,21.75
2023-01-25T13:12:24.645Z,20.25
2023-01-25T13:14:54.195Z,23.25
2023-01-25T13:17:26.494Z,22.50
2023-01-25T13:19:54.567Z,20.75
2023-01-25T13:22:58.817Z,21.75
2023-01-25T13:25:27.456Z,23.25
2023-01-25T13:28:23.731Z,20.50
2023-01-25T13:30:55.828Z,21.25
2023-01-25T13:33:33.980Z,24.75
2023-01-25T13:36:41.238Z,21.75
2023-01-25T13:39:47.236Z,20.00
2023-01-25T13:42:22.784Z,21.25
2023-01-25T13:44:51.956Z,22.00
2023-01-25T13:47:22.508Z,20.75
2023-01-25T13:49:53.658Z,20.00
2023-01-25T13:52:22.454Z,20.75
2023-01-25T13:54:51.709Z,22.25
2023-01-25T13:57:22.079Z,22.00
2023-01-25T13:59:52.438Z,21.00
2023-01-25T14:02:24.772Z,21.50
2023-01-25T14:04:53.079Z,23.00
2023-01-25T14:07:32.772Z,20.75
2023-01-25T14:10:02.458Z,21.00
2023-01-25T14:12:36.706Z,21.50
2023-01-25T14:15:22.809Z,21.25
2023-01-25T14:18:14.738Z,21.50
2023-01-25T14:20:42.637Z,21.50
2023-01-25T14:23:26.570Z,20.00
2023-01-25T14:25:55.057Z,21.75
2023-01-25T14:28:22.979Z,22.75
2023-01-25T14:30:54.861Z,22.00
2023-01-25T14:33:26.704Z,23.25
2023-01-25T14:36:00.100Z,24.25
2023-01-25T14:38:32.409Z,25.75
2023-01-25T14:41:03.027Z,25.00
2023-01-25T14:43:31.226Z,21.25
2023-01-25T14:45:59.401Z,22.75
2023-01-25T14:48:49.486Z,21.75
2023-01-25T14:51:27.373Z,22.25
2023-01-25T14:53:59.045Z,23.00
2023-01-25T14:56:41.835Z,25.00
2023-01-25T14:59:21.593Z,27.25
2023-01-25T15:01:50.778Z,24.00
2023-01-25T15:04:20.057Z,23.50
2023-01-25T15:06:49.125Z,22.00
2023-01-25T15:09:38.534Z,25.75
2023-01-25T15:12:23.025Z,22.00
2023-01-25T15:14:51.603Z,22.00
2023-01-25T15:17:39.984Z,23.25
2023-01-25T15:20:30.919Z,24.00
2023-01-25T15:23:00.409Z,23.75
2023-01-25T15:25:28.666Z,21.50
2023-01-25T15:27:56.532Z,23.25
2023-01-25T15:30:24.496Z,22.75
2023-01-25T15:32:52.432Z,22.25
2023-01-25T15:35:21.196Z,22.00
2023-01-25T15:37:50.576Z,23.75
2023-01-25T15:40:18.617Z,25.00
2023-01-25T15:42:46.498Z,20.50
2023-01-25T15:45:14.739Z,23.75
2023-01-25T15:47:42.693Z,21.75
2023-01-25T15:50:17.832Z,23.00
2023-01-25T15:52:45.746Z,23.25
2023-01-25T15:55:17.493Z,24.00
2023-01-25T15:57:46.880Z,25.50
2023-01-25T16:00:18.891Z,24.00
2023-01-25T16:02:47.052Z,25.25
2023-01-25T16:05:14.928Z,25.00
2023-01-25T16:07:43.499Z,22.75
2023-01-25T16:10:20.020Z,22.25
2023-01-25T16:12:48.237Z,22.75
2023-01-25T16:15:16.485Z,21.75
2023-01-25T16:17:44.553Z,21.75
2023-01-25T16:20:17.601Z,24.75
2023-01-25T16:22:45.562Z,26.25
2023-01-25T16:25:13.445Z,23.25
2023-01-25T16:27:42.767Z,23.25
2023-01-25T16:30:18.645Z,25.00
2023-01-25T16:32:46.776Z,23.00
2023-01-25T16:35:16.043Z,20.50
2023-01-25T16:37:44.050Z,23.25
2023-01-25T16:40:20.693Z,26.50
2023-01-25T16:42:50.144Z,19.75
2023-01-25T16:45:19.390Z,20.25
2023-01-25T16:47:47.713Z,21.25
2023-01-25T16:50:15.713Z,24.00
2023-01-25T16:52:44.957Z,23.00
2023-01-25T16:55:13.584Z,19.50
2023-01-25T16:57:41.759Z,22.25
2023-01-25T17:00:14.924Z,24.25
2023-01-25T17:02:56.996Z,20.25
2023-01-25T17:05:29.014Z,20.00
2023-01-25T17:07:57.076Z,21.50
2023-01-25T17:10:24.983Z,20.00
2023-01-25T17:12:54.122Z,21.25
2023-01-25T17:15:23.914Z,22.75
2023-01-25T17:17:51.888Z,21.00
2023-01-25T17:20:19.972Z,22.75
2023-01-25T17:22:51.037Z,22.00
2023-01-25T17:25:19.330Z,20.50
2023-01-25T17:27:47.472Z,21.00
2023-01-25T17:30:15.801Z,20.00
2023-01-25T17:32:45.084Z,20.00
2023-01-25T17:35:13.263Z,21.75
2023-01-25T17:37:41.225Z,20.75
2023-01-25T17:40:11.296Z,19.75
2023-01-25T17:42:39.492Z,21.75
2023-01-25T17:45:11.138Z,23.75
2023-01-25T17:47:39.516Z,24.50
2023-01-25T17:50:10.670Z,22.00
2023-01-25T17:52:38.756Z,23.75
2023-01-25T17:55:07.875Z,25.00
2023-01-25T17:57:37.212Z,25.25
2023-01-25T18:00:05.914Z,28.00
2023-01-25T18:02:36.520Z,26.00
2023-01-25T18:05:04.948Z,29.50
2023-01-25T18:07:34.479Z,28.50
2023-01-25T18:10:02.368Z,29.50
2023-01-25T18:12:30.259Z,31.50
2023-01-25T18:14:58.479Z,29.50
2023-01-25T18:17:26.499Z,29.25
2023-01-25T18:19:54.391Z,29.25
2023-01-25T18:22:23.392Z,32.50
2023-01-25T18:24:52.944Z,30.75
2023-01-25T18:27:21.768Z,31.00
2023-01-25T18:29:54.131Z,28.00
2023-01-25T18:32:22.164Z,30.75
2023-01-25T18:34:50.325Z,30.25
2023-01-25T18:37:21.839Z,30.25
2023-01-25T18:39:50.264Z,29.25
2023-01-25T18:42:19.796Z,30.00
2023-01-25T18:44:49.181Z,29.00
2023-01-25T18:47:18.550Z,30.25
2023-01-25T18:49:50.428Z,28.25
2023-01-25T18:52:18.673Z,28.75
2023-01-25T18:54:47.030Z,28.00
2023-01-25T18:57:15.078Z,27.00
2023-01-25T18:59:44.457Z,29.50
2023-01-25T19:02:12.896Z,25.75
2023-01-25T19:04:40.840Z,26.50
2023-01-25T19:07:09.027Z,26.00
2023-01-25T19:09:37.179Z,25.25
2023-01-25T19:12:05.592Z,24.25
2023-01-25T19:14:33.823Z,23.25
2023-01-25T19:17:03.779Z,24.50
2023-01-25T19:19:33.709Z,26.00
2023-01-25T19:22:02.133Z,25.50
2023-01-25T19:24:30.080Z,22.00
2023-01-25T19:26:58.326Z,21.00
2023-01-25T19:29:26.330Z,24.00
2023-01-25T19:31:54.375Z,22.75
2023-01-25T19:34:23.951Z,23.50
2023-01-25T19:36:53.989Z,24.75
2023-01-25T19:39:22.507Z,24.75
2023-01-25T19:41:52.432Z,28.00
2023-01-25T19:44:20.668Z,27.00
2023-01-25T19:46:48.685Z,30.25
2023-01-25T19:49:16.819Z,31.75
2023-01-25T19:51:52.772Z,30.75
2023-01-25T19:54:21.697Z,31.50
2023-01-25T19:56:49.957Z,31.25
2023-01-25T19:59:18.692Z,34.00
2023-01-25T20:01:46.820Z,29.75
2023-01-25T20:04:15.507Z,31.00
2023-01-25T20:06:45.849Z,31.25
2023-01-25T20:09:14.264Z,32.50
2023-01-25T20:11:42.176Z,29.50
2023-01-25T20:14:11.449Z,31.00
2023-01-25T20:16:39.314Z,33.00
2023-01-25T20:19:07.254Z,31.75
2023-01-25T20:21:38.159Z,31.75
2023-01-25T20:24:09.911Z,30.75
2023-01-25T20:26:39.795Z,32.00
2023-01-25T20:29:07.776Z,31.50
2023-01-25T20:31:36.512Z,30.00
2023-01-25T20:34:05.901Z,31.00
2023-01-25T20:36:34.878Z,32.00
2023-01-25T20:39:02.860Z,33.00
2023-01-25T20:41:32.197Z,34.50
2023-01-25T20:44:01.982Z,34.25
2023-01-25T20:46:33.905Z,34.00
2023-01-25T20:49:02.296Z,35.25
2023-01-25T20:51:30.224Z,36.75
2023-01-25T20:53:58.257Z,36.50
2023-01-25T20:56:26.542Z,35.75
2023-01-25T20:58:55.857Z,39.00
2023-01-25T21:01:24.656Z,37.50
2023-01-25T21:03:54.359Z,37.75
2023-01-25T21:06:22.594Z,36.75
2023-01-25T21:08:50.551Z,37.00
2023-01-25T21:11:18.533Z,38.00
2023-01-25T21:13:46.463Z,36.00
2023-01-25T21:16:17.934Z,35.75
2023-01-25T21:18:48.293Z,35.50
2023-01-25T21:21:17.688Z,37.75
2023-01-25T21:23:47.498Z,33.75
2023-01-25T21:26:16.429Z,32.75
2023-01-25T21:28:44.418Z,34.75
2023-01-25T21:31:13.211Z,33.75
2023-01-25T21:33:42.735Z,32.75
2023-01-25T21:36:11.723Z,33.25
2023-01-25T21:38:39.968Z,33.25
2023-01-25T21:41:08.874Z,31.50
2023-01-25T21:43:51.088Z,32.00
2023-01-25T21:46:25.556Z,32.00
2023-01-25T21:49:12.754Z,31.50
2023-01-25T21:51:46.963Z,30.25
2023-01-25T21:54:15.939Z,32.00
2023-01-25T21:56:44.096Z,32.00
2023-01-25T21:59:12.030Z,30.25
2023-01-25T22:01:39.964Z,30.00
2023-01-25T22:04:09.213Z,30.00
2023-01-25T22:06:37.509Z,30.00
2023-01-25T22:09:05.495Z,28.00
2023-01-25T22:11:33.409Z,27.50
2023-01-25T22:14:01.811Z,29.75
2023-01-25T22:16:30.429Z,27.25
2023-01-25T22:18:59.905Z,27.75
2023-01-25T22:21:31.093Z,27.75
2023-01-25T22:24:00.282Z,28.00
2023-01-25T22:26:32.055Z,29.00
2023-01-25T22:29:00.374Z,26.00
2023-01-25T22:31:29.967Z,29.50
2023-01-25T22:33:59.689Z,32.00
2023-01-25T22:36:30.264Z,30.25
2023-01-25T22:39:00.175Z,32.00
2023-01-25T22:41:29.045Z,32.00
2023-01-25T22:43:57.855Z,34.00
2023-01-25T22:46:26.973Z,33.00
2023-01-25T22:48:54.926Z,34.50
2023-01-25T22:51:25.444Z,33.75
2023-01-25T22:53:55.091Z,32.00
2023-01-25T22:56:23.667Z,33.33
2023-01-25T22:58:51.603Z,33.50
2023-01-25T23:01:20.461Z,32.25
2023-01-25T23:03:48.660Z,32.75
2023-01-25T23:06:17.616Z,32.50
2023-01-25T23:08:45.566Z,32.00
2023-01-25T23:11:16.069Z,33.00
2023-01-25T23:14:04.264Z,33.50
2023-01-25T23:16:32.246Z,33.50
2023-01-25T23:18:59.094Z,33.00
2023-01-25T23:21:28.346Z,32.00
2023-01-25T23:23:56.242Z,32.00
2023-01-25T23:26:25.818Z,31.00
2023-01-25T23:28:54.656Z,30.00
2023-01-25T23:31:24.257Z,32.00
2023-01-25T23:33:53.030Z,31.75
2023-01-25T23:36:22.105Z,29.75
2023-01-25T23:38:50.041Z,32.00
2023-01-25T23:41:20.575Z,30.00
2023-01-25T23:43:50.178Z,30.75
2023-01-25T23:46:18.465Z,29.25
2023-01-25T23:48:46.845Z,29.25
2023-01-25T23:51:15.577Z,30.50
2023-01-25T23:53:43.515Z,27.50
2023-01-25T23:56:13.392Z,29.00
2023-01-25T23:58:41.396Z,28.00
